createdAt,value
2018-07-07T00:00:59.881Z,18.60
2018-07-07T00:03:58.066Z,18.60
2018-07-07T00:06:55.910Z,18.60
2018-07-07T00:12:44.378Z,18.20
2018-07-07T00:15:41.626Z,18.10
2018-07-07T00:18:39.667Z,18.00
2018-07-07T00:21:37.514Z,18.00
2018-07-07T00:24:34.788Z,18.00
2018-07-07T00:27:32.655Z,18.00
2018-07-07T00:30:31.656Z,18.00
2018-07-07T00:33:29.672Z,18.00
2018-07-07T00:36:27.544Z,17.90
2018-07-07T00:39:25.149Z,18.00
2018-07-07T00:42:23.230Z,17.90
2018-07-07T00:45:20.987Z,17.80
2018-07-07T00:48:18.859Z,17.90
2018-07-07T00:51:16.727Z,17.80
2018-07-07T00:54:14.680Z,17.80
2018-07-07T00:57:12.526Z,17.80
2018-07-07T01:03:00.706Z,17.90
2018-07-07T01:05:59.462Z,17.80
2018-07-07T01:08:57.220Z,17.70
2018-07-07T01:11:55.034Z,17.70
2018-07-07T01:14:52.915Z,17.70
2018-07-07T01:17:50.869Z,17.70
2018-07-07T01:20:48.646Z,17.60
2018-07-07T01:23:47.653Z,17.60
2018-07-07T01:26:45.491Z,17.60
2018-07-07T01:32:33.528Z,17.70
2018-07-07T01:35:31.414Z,17.70
2018-07-07T01:38:29.355Z,17.70
2018-07-07T01:41:27.368Z,17.70
2018-07-07T01:44:24.722Z,17.70
2018-07-07T01:47:22.672Z,17.50
2018-07-07T01:50:20.666Z,17.60
2018-07-07T01:53:18.712Z,17.50
2018-07-07T01:56:16.497Z,17.40
2018-07-07T01:59:14.297Z,17.40
2018-07-07T02:02:13.144Z,17.30
2018-07-07T02:05:11.000Z,17.30
2018-07-07T02:08:08.853Z,17.30
2018-07-07T02:11:06.589Z,17.40
2018-07-07T02:14:04.400Z,17.50
2018-07-07T02:17:02.543Z,17.50
2018-07-07T02:20:00.618Z,17.50
2018-07-07T02:22:58.121Z,17.40
2018-07-07T02:25:56.202Z,17.40
2018-07-07T02:28:54.040Z,17.30
2018-07-07T02:31:51.987Z,17.20
2018-07-07T02:34:49.920Z,17.10
2018-07-07T02:37:47.940Z,17.00
2018-07-07T02:40:46.018Z,17.00
2018-07-07T02:43:43.967Z,16.90
2018-07-07T02:46:42.142Z,16.90
2018-07-07T02:49:40.092Z,17.10
2018-07-07T02:52:38.070Z,17.00
2018-07-07T02:55:35.781Z,17.10
2018-07-07T02:58:33.505Z,17.10
2018-07-07T03:01:31.586Z,17.10
2018-07-07T03:04:29.494Z,17.20
2018-07-07T03:07:27.493Z,17.20
2018-07-07T03:10:25.489Z,17.20
2018-07-07T03:13:23.371Z,17.20
2018-07-07T03:16:21.458Z,17.20
2018-07-07T03:19:19.465Z,17.30
2018-07-07T03:22:17.172Z,17.30
2018-07-07T03:25:15.121Z,17.30
2018-07-07T03:28:12.887Z,17.20
2018-07-07T03:31:10.602Z,17.20
2018-07-07T03:34:08.382Z,17.20
2018-07-07T03:37:06.142Z,17.30
2018-07-07T03:40:04.970Z,17.40
2018-07-07T03:43:03.021Z,17.60
2018-07-07T03:46:00.796Z,17.70
2018-07-07T03:48:58.598Z,17.80
2018-07-07T03:51:56.587Z,17.70
2018-07-07T03:54:54.620Z,17.70
2018-07-07T03:57:52.608Z,17.80
2018-07-07T04:00:51.446Z,17.80
2018-07-07T04:03:49.123Z,17.70
2018-07-07T04:06:46.811Z,17.70
2018-07-07T04:09:44.403Z,17.60
2018-07-07T04:12:42.202Z,17.80
2018-07-07T04:15:39.905Z,17.90
2018-07-07T04:18:42.858Z,18.10
2018-07-07T04:21:40.650Z,18.20
2018-07-07T04:24:38.375Z,18.10
2018-07-07T04:27:36.238Z,18.10
2018-07-07T04:30:34.099Z,18.10
2018-07-07T04:33:32.213Z,18.10
2018-07-07T04:36:29.969Z,18.20
2018-07-07T04:42:17.920Z,18.30
2018-07-07T05:11:07.879Z,18.40
2018-07-07T05:14:05.845Z,18.40
2018-07-07T05:17:03.803Z,18.30
2018-07-07T05:20:01.828Z,18.40
2018-07-07T05:22:59.928Z,18.40
2018-07-07T05:25:57.950Z,18.40
2018-07-07T05:28:55.776Z,18.50
2018-07-07T05:31:52.979Z,18.70
2018-07-07T05:34:50.894Z,18.80
2018-07-07T05:37:48.711Z,18.90
2018-07-07T05:40:46.703Z,19.10
2018-07-07T05:43:45.434Z,19.30
2018-07-07T05:46:43.369Z,19.20
2018-07-07T05:49:41.244Z,19.40
2018-07-07T05:52:38.982Z,19.50
2018-07-07T05:55:36.938Z,19.50
2018-07-07T05:58:34.743Z,19.60
2018-07-07T06:01:32.563Z,19.50
2018-07-07T06:04:30.433Z,19.40
2018-07-07T06:07:28.675Z,19.40
2018-07-07T06:10:26.546Z,19.40
2018-07-07T06:13:24.393Z,19.40
2018-07-07T06:16:22.422Z,19.40
2018-07-07T06:19:19.710Z,19.50
2018-07-07T06:22:17.603Z,19.40
2018-07-07T06:25:15.443Z,19.80
2018-07-07T06:28:14.662Z,19.90
2018-07-07T06:31:12.222Z,19.90
2018-07-07T06:34:09.965Z,19.90
2018-07-07T06:37:07.934Z,19.80
2018-07-07T06:40:05.883Z,19.90
2018-07-07T06:43:03.623Z,19.90
2018-07-07T06:46:01.550Z,19.90
2018-07-07T06:51:49.270Z,19.90
2018-07-07T06:54:47.089Z,20.10
2018-07-07T06:57:45.033Z,20.20
2018-07-07T07:00:42.707Z,20.30
2018-07-07T07:03:40.454Z,20.10
2018-07-07T07:06:38.010Z,20.20
2018-07-07T07:09:36.926Z,20.20
2018-07-07T07:12:34.808Z,20.10
2018-07-07T07:15:32.492Z,20.20
2018-07-07T07:18:30.432Z,20.30
2018-07-07T07:21:28.287Z,20.50
2018-07-07T07:24:26.026Z,20.90
2018-07-07T07:27:24.151Z,20.90
2018-07-07T07:30:22.200Z,20.80
2018-07-07T07:33:20.109Z,20.70
2018-07-07T07:36:20.939Z,20.90
2018-07-07T07:39:18.744Z,21.20
2018-07-07T07:42:16.846Z,21.70
2018-07-07T07:45:23.459Z,21.40
2018-07-07T07:48:21.512Z,21.50
2018-07-07T07:51:19.380Z,21.50
2018-07-07T07:54:17.194Z,21.80
2018-07-07T07:57:15.135Z,22.10
2018-07-07T08:00:13.102Z,22.40
2018-07-07T08:06:01.340Z,22.40
2018-07-07T08:08:59.220Z,21.90
2018-07-07T08:11:57.046Z,21.70
2018-07-07T08:14:54.833Z,22.70
2018-07-07T08:17:52.648Z,23.30
2018-07-07T08:20:50.791Z,23.50
2018-07-07T08:26:38.748Z,22.80
2018-07-07T08:29:37.571Z,22.40
2018-07-07T08:35:24.610Z,22.30
2018-07-07T08:38:26.412Z,22.40
2018-07-07T08:41:27.334Z,22.80
2018-07-07T08:44:25.460Z,22.80
2018-07-07T08:47:23.662Z,23.20
2018-07-07T08:50:21.095Z,23.30
2018-07-07T08:53:18.847Z,23.40
2018-07-07T08:56:16.823Z,22.60
2018-07-07T08:59:14.647Z,22.80
2018-07-07T09:02:12.512Z,23.00
2018-07-07T09:05:10.332Z,23.70
2018-07-07T09:08:07.961Z,23.70
2018-07-07T09:11:05.890Z,23.70
2018-07-07T09:14:04.711Z,23.90
2018-07-07T09:17:02.533Z,24.80
2018-07-07T09:20:00.485Z,25.40
2018-07-07T09:22:58.435Z,24.90
2018-07-07T09:25:56.151Z,24.60
2018-07-07T09:28:54.139Z,25.00
2018-07-07T09:31:51.809Z,24.80
2018-07-07T09:34:51.311Z,24.20
2018-07-07T09:37:48.804Z,23.10
2018-07-07T09:40:46.715Z,23.60
2018-07-07T09:43:44.737Z,25.00
2018-07-07T09:49:32.513Z,25.70
2018-07-07T09:52:30.681Z,25.00
2018-07-07T09:55:29.560Z,24.10
2018-07-07T09:58:27.531Z,23.40
2018-07-07T10:01:25.112Z,22.90
2018-07-07T10:04:23.258Z,22.50
2018-07-07T10:07:21.152Z,22.30
2018-07-07T10:10:18.821Z,22.20
2018-07-07T10:13:17.590Z,22.20
2018-07-07T10:16:16.460Z,22.00
2018-07-07T10:19:14.311Z,21.80
2018-07-07T10:22:13.153Z,21.50
2018-07-07T10:25:10.979Z,21.50
2018-07-07T10:28:09.238Z,22.00
2018-07-07T10:31:07.370Z,22.20
2018-07-07T10:34:05.224Z,22.10
2018-07-07T10:37:03.282Z,22.10
2018-07-07T11:02:36.302Z,22.20
2018-07-07T11:05:34.134Z,21.80
2018-07-07T11:08:32.043Z,21.30
2018-07-07T11:14:20.823Z,21.10
2018-07-07T11:17:18.767Z,21.20
2018-07-07T11:23:06.164Z,20.80
2018-07-07T11:26:03.465Z,21.10
2018-07-07T11:29:01.546Z,21.50
2018-07-07T11:31:59.779Z,21.40
2018-07-07T11:37:47.164Z,21.20
2018-07-07T11:40:45.069Z,21.50
2018-07-07T11:43:42.952Z,21.40
2018-07-07T11:46:40.896Z,21.30
2018-07-07T11:49:38.590Z,21.40
2018-07-07T11:52:36.390Z,21.50
2018-07-07T11:55:34.219Z,21.50
2018-07-07T11:58:31.949Z,21.80
2018-07-07T12:01:29.923Z,21.90
2018-07-07T12:04:28.074Z,22.00
2018-07-07T12:07:27.283Z,21.90
2018-07-07T12:10:24.968Z,21.60
2018-07-07T12:13:22.802Z,21.60
2018-07-07T12:16:20.927Z,21.60
2018-07-07T12:19:18.813Z,21.70
2018-07-07T12:22:16.551Z,21.60
2018-07-07T12:25:14.377Z,21.60
2018-07-07T12:28:12.518Z,21.80
2018-07-07T12:31:10.422Z,21.90
2018-07-07T12:34:07.959Z,21.80
2018-07-07T12:37:05.621Z,21.70
2018-07-07T12:40:03.260Z,21.90
2018-07-07T12:43:01.023Z,21.90
2018-07-07T12:45:59.006Z,21.70
2018-07-07T12:48:56.834Z,21.80
2018-07-07T12:51:54.929Z,21.60
2018-07-07T12:54:52.804Z,21.60
2018-07-07T12:57:50.670Z,21.80
2018-07-07T13:00:48.606Z,21.50
2018-07-07T13:03:46.414Z,21.80
2018-07-07T13:09:34.640Z,21.80
2018-07-07T13:12:32.603Z,21.70
2018-07-07T13:15:30.596Z,21.50
2018-07-07T13:18:29.403Z,21.70
2018-07-07T13:21:27.228Z,22.00
2018-07-07T13:24:24.378Z,22.20
2018-07-07T13:27:22.358Z,22.10
2018-07-07T13:30:20.253Z,21.80
2018-07-07T13:36:08.561Z,21.80
2018-07-07T13:39:06.371Z,21.80
2018-07-07T13:42:04.330Z,21.80
2018-07-07T13:45:02.487Z,21.60
2018-07-07T13:48:00.551Z,21.90
2018-07-07T13:50:58.930Z,22.00
2018-07-07T13:53:56.745Z,22.20
2018-07-07T13:59:45.666Z,22.40
2018-07-07T14:02:43.447Z,22.10
2018-07-07T14:05:42.003Z,21.80
2018-07-07T14:08:39.636Z,21.80
2018-07-07T14:11:37.492Z,22.00
2018-07-07T14:14:35.516Z,22.10
2018-07-07T14:17:33.736Z,22.30
2018-07-07T14:20:31.213Z,22.60
2018-07-07T14:23:28.989Z,22.40
2018-07-07T14:26:27.804Z,22.40
2018-07-07T14:29:25.822Z,22.40
2018-07-07T14:32:23.673Z,22.30
2018-07-07T14:35:21.273Z,22.40
2018-07-07T14:38:19.242Z,22.70
2018-07-07T14:41:26.195Z,22.70
2018-07-07T14:44:25.152Z,23.00
2018-07-07T14:47:23.118Z,23.80
2018-07-07T14:50:22.026Z,24.30
2018-07-07T14:56:09.538Z,24.90
2018-07-07T14:59:07.664Z,24.90
2018-07-07T15:02:05.478Z,25.00
2018-07-07T15:05:03.142Z,24.90
2018-07-07T15:08:02.143Z,24.80
2018-07-07T15:10:59.815Z,24.80
2018-07-07T15:13:57.803Z,25.10
2018-07-07T15:16:55.706Z,25.10
2018-07-07T15:19:53.450Z,25.00
2018-07-07T15:22:51.250Z,24.90
2018-07-07T15:25:49.089Z,24.60
2018-07-07T15:28:46.975Z,24.90
2018-07-07T15:31:44.860Z,25.00
2018-07-07T15:34:42.867Z,24.80
2018-07-07T15:37:40.615Z,24.90
2018-07-07T15:40:38.398Z,24.80
2018-07-07T15:43:36.111Z,24.60
2018-07-07T15:46:33.950Z,24.40
2018-07-07T15:49:31.713Z,24.20
2018-07-07T15:52:30.312Z,24.10
2018-07-07T15:55:28.261Z,24.30
2018-07-07T15:58:26.019Z,24.30
2018-07-07T16:01:23.924Z,24.30
2018-07-07T16:04:23.023Z,24.20
2018-07-07T16:07:21.013Z,24.20
2018-07-07T16:10:18.781Z,24.30
2018-07-07T16:13:16.588Z,24.30
2018-07-07T16:16:14.446Z,24.00
2018-07-07T16:19:12.322Z,23.90
2018-07-07T16:22:10.273Z,23.90
2018-07-07T16:25:08.248Z,23.80
2018-07-07T16:28:21.002Z,23.70
2018-07-07T16:34:08.569Z,23.80
2018-07-07T16:37:06.526Z,23.70
2018-07-07T16:40:04.666Z,23.60
2018-07-07T16:43:03.323Z,23.30
2018-07-07T16:46:00.996Z,23.10
2018-07-07T16:48:58.865Z,23.20
2018-07-07T16:51:56.687Z,23.30
2018-07-07T16:54:57.577Z,23.20
2018-07-07T16:57:55.358Z,23.10
2018-07-07T17:00:53.173Z,23.10
2018-07-07T17:03:51.019Z,22.90
2018-07-07T17:09:39.057Z,22.70
2018-07-07T17:12:36.981Z,22.50
2018-07-07T17:15:34.963Z,22.50
2018-07-07T17:18:33.921Z,22.60
2018-07-07T17:21:31.696Z,22.50
2018-07-07T17:24:29.558Z,22.40
2018-07-07T17:27:28.530Z,22.40
2018-07-07T17:30:26.541Z,22.40
2018-07-07T17:33:24.318Z,22.40
2018-07-07T17:36:23.116Z,22.30
2018-07-07T17:42:11.160Z,21.90
2018-07-07T17:45:09.292Z,21.90
2018-07-07T17:48:07.051Z,21.90
2018-07-07T17:51:05.017Z,21.90
2018-07-07T17:54:02.311Z,21.80
2018-07-07T17:57:00.156Z,21.90
2018-07-07T17:59:58.125Z,21.90
2018-07-07T18:02:56.046Z,22.00
2018-07-07T18:05:54.037Z,22.00
2018-07-07T18:08:51.906Z,22.10
2018-07-07T18:11:49.616Z,22.20
2018-07-07T18:14:47.272Z,22.20
2018-07-07T18:17:45.093Z,22.20
2018-07-07T18:20:43.218Z,22.20
2018-07-07T18:23:40.911Z,22.30
2018-07-07T18:26:38.673Z,22.20
2018-07-07T18:29:36.423Z,22.30
2018-07-07T18:32:34.096Z,22.30
2018-07-07T18:35:31.907Z,22.30
2018-07-07T18:38:29.829Z,22.10
2018-07-07T18:44:17.807Z,21.70
2018-07-07T18:47:15.742Z,21.30
2018-07-07T18:50:13.679Z,21.10
2018-07-07T18:53:11.553Z,20.90
2018-07-07T18:56:09.526Z,20.70
2018-07-07T18:59:07.215Z,20.70
2018-07-07T19:02:05.147Z,20.60
2018-07-07T19:05:03.156Z,20.40
2018-07-07T19:08:01.141Z,20.40
2018-07-07T19:10:58.926Z,20.30
2018-07-07T19:13:57.636Z,20.20
2018-07-07T19:19:45.302Z,20.20
2018-07-07T19:22:49.434Z,20.20
2018-07-07T19:25:52.972Z,19.90
2018-07-07T19:28:50.871Z,19.80
2018-07-07T19:31:54.599Z,19.50
2018-07-07T19:34:58.165Z,19.40
2018-07-07T19:37:56.003Z,19.30
2018-07-07T19:40:53.733Z,19.30
2018-07-07T19:43:51.804Z,19.10
2018-07-07T19:46:49.776Z,19.00
2018-07-07T19:49:49.619Z,19.00
2018-07-07T19:52:47.806Z,18.80
2018-07-07T19:55:45.298Z,19.00
2018-07-07T19:58:43.263Z,19.10
2018-07-07T20:01:41.247Z,19.00
2018-07-07T20:04:39.102Z,19.00
2018-07-07T20:07:36.942Z,18.90
2018-07-07T20:10:36.099Z,18.80
2018-07-07T20:13:34.039Z,18.80
2018-07-07T20:16:34.829Z,18.70
2018-07-07T20:19:33.667Z,18.80
2018-07-07T20:22:31.328Z,18.80
2018-07-07T20:25:29.143Z,18.60
2018-07-07T20:28:33.064Z,18.70
2018-07-07T20:31:31.163Z,18.70
2018-07-07T20:34:31.992Z,18.60
2018-07-07T20:40:22.305Z,18.60
2018-07-07T20:43:20.154Z,18.50
2018-07-07T20:46:18.095Z,18.60
2018-07-07T20:49:15.949Z,18.60
2018-07-07T20:52:14.181Z,18.50
2018-07-07T20:55:11.768Z,18.40
2018-07-07T20:58:09.616Z,18.30
2018-07-07T21:01:07.256Z,18.30
2018-07-07T21:04:06.251Z,18.30
2018-07-07T21:07:04.102Z,18.30
2018-07-07T21:10:03.027Z,18.20
2018-07-07T21:13:00.875Z,18.10
2018-07-07T21:15:58.739Z,18.00
2018-07-07T21:18:56.495Z,18.00
2018-07-07T21:21:54.515Z,17.80
2018-07-07T21:24:52.364Z,17.80
2018-07-07T21:27:50.436Z,17.90
2018-07-07T21:30:48.174Z,17.80
2018-07-07T21:33:46.048Z,17.80
2018-07-07T21:36:43.879Z,17.80
2018-07-07T21:39:41.924Z,17.80
2018-07-07T21:42:39.722Z,17.70
2018-07-07T21:45:37.288Z,17.60
2018-07-07T21:48:35.903Z,17.60
2018-07-07T21:51:33.562Z,17.50
2018-07-07T21:54:31.450Z,17.50
2018-07-07T21:57:35.244Z,17.50
2018-07-07T22:00:38.857Z,17.50
2018-07-07T22:03:42.760Z,17.50
2018-07-07T22:06:46.909Z,17.50
2018-07-07T22:09:45.761Z,17.50
2018-07-07T22:12:43.459Z,17.50
2018-07-07T22:15:41.431Z,17.40
2018-07-07T22:18:39.157Z,17.40
2018-07-07T22:22:19.917Z,17.40
2018-07-07T22:25:17.728Z,17.30
2018-07-07T22:28:15.572Z,17.30
2018-07-07T22:31:13.235Z,17.20
2018-07-07T22:34:11.395Z,17.10
2018-07-07T22:37:08.587Z,17.10
2018-07-07T22:40:06.508Z,17.10
2018-07-07T22:43:04.491Z,17.00
2018-07-07T22:46:02.589Z,17.00
2018-07-07T22:48:59.709Z,16.90
2018-07-07T22:51:57.744Z,16.90
2018-07-07T22:54:55.438Z,16.90
2018-07-07T22:57:53.225Z,16.90
2018-07-07T23:00:53.881Z,16.80
2018-07-07T23:03:51.716Z,16.80
2018-07-07T23:06:50.874Z,16.80
2018-07-07T23:09:48.859Z,16.80
2018-07-07T23:12:46.801Z,16.70
2018-07-07T23:15:44.499Z,16.70
2018-07-07T23:18:42.387Z,16.60
2018-07-07T23:21:40.300Z,16.70
2018-07-07T23:24:38.316Z,16.70
2018-07-07T23:27:36.145Z,16.60
2018-07-07T23:30:34.122Z,16.60
2018-07-07T23:33:31.822Z,16.50
2018-07-07T23:36:29.658Z,16.60
2018-07-07T23:39:28.554Z,16.70
2018-07-07T23:42:26.591Z,16.60
2018-07-07T23:45:24.363Z,16.50
2018-07-07T23:48:22.056Z,16.50
2018-07-07T23:51:19.884Z,16.60
2018-07-07T23:54:17.598Z,16.60
2018-07-07T23:57:15.455Z,16.60
